createdAt,value
2022-10-17T00:00:23.078Z,13.40
2022-10-17T00:02:50.761Z,13.40
2022-10-17T00:05:18.594Z,13.40
2022-10-17T00:07:46.289Z,13.40
2022-10-17T00:10:13.993Z,13.40
2022-10-17T00:12:43.272Z,13.30
2022-10-17T00:15:16.477Z,13.40
2022-10-17T00:17:44.243Z,13.30
2022-10-17T00:20:13.649Z,13.40
2022-10-17T00:22:41.392Z,13.40
2022-10-17T00:25:09.892Z,13.40
2022-10-17T00:27:38.052Z,13.40
2022-10-17T00:30:09.243Z,13.40
2022-10-17T00:32:36.994Z,13.40
2022-10-17T00:35:05.326Z,13.40
2022-10-17T00:37:34.069Z,13.40
2022-10-17T00:40:01.874Z,13.40
2022-10-17T00:42:30.037Z,13.50
2022-10-17T00:45:16.009Z,13.40
2022-10-17T00:47:46.273Z,13.40
2022-10-17T00:50:14.784Z,13.40
2022-10-17T00:52:43.273Z,13.40
2022-10-17T00:55:15.445Z,13.40
2022-10-17T00:57:44.706Z,13.50
2022-10-17T01:00:14.271Z,13.50
2022-10-17T01:02:43.545Z,13.50
2022-10-17T01:05:11.604Z,13.50
2022-10-17T01:07:42.107Z,13.60
2022-10-17T01:10:11.734Z,13.60
2022-10-17T01:12:49.546Z,13.60
2022-10-17T01:15:29.219Z,13.70
2022-10-17T01:18:07.146Z,13.70
2022-10-17T01:21:17.799Z,13.70
2022-10-17T01:24:27.422Z,13.70
2022-10-17T01:27:10.197Z,13.70
2022-10-17T01:30:05.105Z,13.70
2022-10-17T01:32:38.173Z,13.80
2022-10-17T01:35:11.115Z,13.80
2022-10-17T01:37:46.572Z,13.80
2022-10-17T01:40:21.321Z,13.90
2022-10-17T01:43:01.518Z,13.90
2022-10-17T01:45:34.443Z,13.90
2022-10-17T01:48:09.876Z,13.90
2022-10-17T01:50:42.303Z,13.90
2022-10-17T01:53:15.349Z,13.90
2022-10-17T01:55:46.833Z,13.90
2022-10-17T01:58:20.129Z,14.00
2022-10-17T02:00:49.531Z,14.00
2022-10-17T02:03:21.554Z,14.00
2022-10-17T02:05:49.621Z,14.00
2022-10-17T02:08:27.444Z,14.10
2022-10-17T02:11:00.443Z,14.10
2022-10-17T02:13:39.244Z,14.10
2022-10-17T02:19:17.218Z,14.20
2022-10-17T02:21:52.139Z,14.20
2022-10-17T02:24:24.235Z,14.20
2022-10-17T02:26:57.662Z,14.20
2022-10-17T02:29:29.755Z,14.30
2022-10-17T02:32:01.989Z,14.30
2022-10-17T02:34:34.617Z,14.30
2022-10-17T02:37:06.500Z,14.40
2022-10-17T02:39:35.901Z,14.40
2022-10-17T02:42:08.326Z,14.40
2022-10-17T02:44:38.537Z,14.40
2022-10-17T02:47:14.178Z,14.40
2022-10-17T02:49:48.451Z,14.40
2022-10-17T02:52:23.043Z,14.40
2022-10-17T02:54:55.708Z,14.40
2022-10-17T02:57:29.278Z,14.40
2022-10-17T02:59:59.121Z,14.40
2022-10-17T03:02:27.390Z,14.30
2022-10-17T03:04:56.812Z,14.40
2022-10-17T03:07:24.561Z,14.40
2022-10-17T03:09:52.285Z,14.40
2022-10-17T03:12:20.004Z,14.40
2022-10-17T03:14:47.785Z,14.40
2022-10-17T03:17:15.546Z,14.50
2022-10-17T03:19:43.342Z,14.50
2022-10-17T03:22:12.425Z,14.50
2022-10-17T03:24:42.274Z,14.50
2022-10-17T03:27:10.038Z,14.50
2022-10-17T03:29:37.985Z,14.50
2022-10-17T03:32:06.158Z,14.50
2022-10-17T03:34:34.153Z,14.50
2022-10-17T03:37:01.944Z,14.40
2022-10-17T03:39:31.040Z,14.30
2022-10-17T03:41:58.791Z,14.20
2022-10-17T03:44:26.653Z,14.20
2022-10-17T03:46:54.410Z,14.10
2022-10-17T03:49:22.201Z,14.00
2022-10-17T03:51:50.013Z,14.00
2022-10-17T03:54:17.864Z,13.90
2022-10-17T03:56:47.102Z,13.80
2022-10-17T03:59:15.968Z,13.80
2022-10-17T04:01:44.011Z,13.70
2022-10-17T04:04:11.915Z,13.70
2022-10-17T04:06:40.022Z,13.70
2022-10-17T04:09:08.858Z,13.60
2022-10-17T04:11:36.678Z,13.60
2022-10-17T04:14:06.119Z,13.60
2022-10-17T04:16:33.918Z,13.60
2022-10-17T04:19:03.162Z,13.60
2022-10-17T04:21:30.971Z,13.50
2022-10-17T04:24:05.433Z,13.50
2022-10-17T04:26:33.361Z,13.50
2022-10-17T04:29:01.142Z,13.50
2022-10-17T04:31:30.289Z,13.50
2022-10-17T04:33:58.032Z,13.50
2022-10-17T04:36:25.845Z,13.50
2022-10-17T04:38:53.735Z,13.50
2022-10-17T04:41:21.551Z,13.40
2022-10-17T04:43:51.127Z,13.40
2022-10-17T04:46:19.725Z,13.40
2022-10-17T04:48:48.890Z,13.40
2022-10-17T04:51:20.783Z,13.30
2022-10-17T04:53:53.046Z,13.30
2022-10-17T04:56:23.325Z,13.30
2022-10-17T04:58:51.647Z,13.30
2022-10-17T05:01:21.374Z,13.30
2022-10-17T05:03:50.915Z,13.20
2022-10-17T05:06:20.862Z,13.20
2022-10-17T05:08:49.132Z,13.20
2022-10-17T05:11:19.288Z,13.20
2022-10-17T05:13:51.211Z,13.10
2022-10-17T05:16:19.142Z,13.10
2022-10-17T05:18:52.978Z,13.00
2022-10-17T05:21:22.377Z,13.00
2022-10-17T05:23:50.574Z,13.00
2022-10-17T05:26:18.854Z,12.90
2022-10-17T05:28:46.972Z,12.90
2022-10-17T05:31:15.438Z,12.90
2022-10-17T05:33:43.358Z,12.80
2022-10-17T05:36:12.671Z,12.80
2022-10-17T05:38:40.555Z,12.80
2022-10-17T05:41:08.437Z,12.80
2022-10-17T05:43:36.316Z,12.70
2022-10-17T05:46:17.436Z,12.70
2022-10-17T05:48:45.378Z,12.70
2022-10-17T05:51:15.322Z,12.70
2022-10-17T05:53:43.527Z,12.70
2022-10-17T05:56:13.429Z,12.70
2022-10-17T05:58:50.985Z,12.70
2022-10-17T06:01:21.013Z,12.80
2022-10-17T06:03:48.930Z,12.80
2022-10-17T06:06:19.211Z,12.80
2022-10-17T06:08:47.587Z,12.90
2022-10-17T06:11:15.589Z,12.90
2022-10-17T06:13:43.588Z,12.90
2022-10-17T06:16:11.557Z,12.90
2022-10-17T06:18:39.425Z,12.90
2022-10-17T06:21:10.504Z,12.90
2022-10-17T06:23:39.744Z,12.90
2022-10-17T06:26:08.717Z,13.00
2022-10-17T06:28:37.640Z,13.00
2022-10-17T06:31:07.268Z,13.00
2022-10-17T06:33:35.466Z,13.00
2022-10-17T06:36:03.692Z,13.00
2022-10-17T06:38:32.031Z,13.10
2022-10-17T06:41:08.338Z,13.10
2022-10-17T06:43:36.790Z,13.10
2022-10-17T06:46:36.527Z,13.20
2022-10-17T06:49:19.490Z,13.20
2022-10-17T06:51:49.416Z,13.20
2022-10-17T06:55:00.367Z,13.20
2022-10-17T06:57:39.924Z,13.30
2022-10-17T07:03:49.684Z,13.40
2022-10-17T07:13:55.232Z,13.60
2022-10-17T07:17:19.013Z,13.70
2022-10-17T07:19:49.946Z,13.80
2022-10-17T07:22:21.886Z,13.80
2022-10-17T07:24:58.088Z,14.00
2022-10-17T07:27:38.421Z,14.10
2022-10-17T07:30:26.515Z,14.20
2022-10-17T07:39:43.804Z,14.70
2022-10-17T07:42:12.105Z,14.90
2022-10-17T07:44:39.933Z,15.10
2022-10-17T07:47:07.807Z,15.20
2022-10-17T07:49:36.036Z,15.30
2022-10-17T07:52:07.619Z,15.30
2022-10-17T07:54:35.510Z,15.40
2022-10-17T07:57:10.284Z,15.40
2022-10-17T07:59:55.309Z,15.40
2022-10-17T08:02:24.969Z,15.40
2022-10-17T08:04:53.211Z,15.40
2022-10-17T08:07:42.020Z,15.70
2022-10-17T08:10:14.709Z,15.80
2022-10-17T08:12:43.191Z,16.10
2022-10-17T08:15:13.817Z,16.30
2022-10-17T08:17:51.603Z,16.50
2022-10-17T08:20:36.823Z,16.70
2022-10-17T08:23:06.285Z,16.80
2022-10-17T08:25:35.914Z,17.00
2022-10-17T08:31:03.202Z,17.10
2022-10-17T08:34:03.415Z,17.20
2022-10-17T08:36:31.276Z,17.30
2022-10-17T08:39:00.455Z,17.30
2022-10-17T08:41:43.064Z,17.30
2022-10-17T08:44:26.115Z,17.40
2022-10-17T08:46:58.864Z,17.50
2022-10-17T08:49:34.998Z,17.50
2022-10-17T08:52:08.157Z,17.60
2022-10-17T08:54:42.864Z,17.50
2022-10-17T08:57:14.016Z,17.60
2022-10-17T08:59:42.277Z,17.70
2022-10-17T09:02:31.571Z,17.80
2022-10-17T09:05:31.652Z,17.90
2022-10-17T09:08:08.099Z,18.00
2022-10-17T09:10:48.550Z,18.00
2022-10-17T09:13:25.988Z,17.90
2022-10-17T09:16:15.893Z,18.00
2022-10-17T09:18:48.727Z,18.10
2022-10-17T09:21:23.318Z,18.30
2022-10-17T09:23:59.688Z,18.50
2022-10-17T09:26:40.853Z,18.60
2022-10-17T09:29:15.815Z,18.70
2022-10-17T09:31:48.220Z,18.90
2022-10-17T09:34:17.396Z,19.00
2022-10-17T09:36:45.207Z,19.00
2022-10-17T09:39:15.847Z,19.00
2022-10-17T09:41:49.122Z,19.00
2022-10-17T09:44:21.654Z,18.90
2022-10-17T09:47:00.901Z,18.90
2022-10-17T09:49:33.175Z,18.90
2022-10-17T09:52:02.288Z,18.90
2022-10-17T09:54:40.855Z,18.90
2022-10-17T09:57:11.701Z,18.90
2022-10-17T09:59:42.193Z,19.00
2022-10-17T10:02:16.895Z,19.20
2022-10-17T10:05:04.959Z,19.40
2022-10-17T10:07:36.408Z,19.60
2022-10-17T10:10:07.014Z,19.60
2022-10-17T10:12:46.679Z,19.70
2022-10-17T10:15:37.496Z,19.80
2022-10-17T10:18:35.995Z,19.90
2022-10-17T10:21:10.397Z,20.10
2022-10-17T10:23:40.497Z,20.30
2022-10-17T10:26:22.440Z,20.40
2022-10-17T10:28:57.995Z,20.40
2022-10-17T10:31:35.234Z,20.40
2022-10-17T10:34:22.454Z,20.40
2022-10-17T10:36:56.239Z,20.40
2022-10-17T10:39:46.842Z,20.50
2022-10-17T10:42:23.878Z,20.60
2022-10-17T10:44:54.981Z,20.80
2022-10-17T10:47:26.240Z,20.90
2022-10-17T10:50:09.431Z,20.90
2022-10-17T10:52:47.049Z,21.10
2022-10-17T10:55:23.783Z,21.30
2022-10-17T10:57:56.037Z,21.30
2022-10-17T11:00:29.016Z,21.40
2022-10-17T11:03:05.663Z,21.40
2022-10-17T11:05:45.201Z,21.50
2022-10-17T11:08:21.313Z,21.50
2022-10-17T11:11:02.030Z,21.50
2022-10-17T11:13:35.820Z,21.40
2022-10-17T11:16:23.134Z,21.40
2022-10-17T11:18:57.793Z,21.40
2022-10-17T11:21:37.974Z,21.40
2022-10-17T11:24:13.945Z,21.40
2022-10-17T11:26:46.310Z,21.40
2022-10-17T11:29:19.488Z,21.40
2022-10-17T11:31:53.594Z,21.40
2022-10-17T11:34:26.242Z,21.50
2022-10-17T11:37:00.305Z,21.60
2022-10-17T11:39:35.116Z,21.70
2022-10-17T11:42:06.971Z,21.70
2022-10-17T11:44:37.535Z,21.80
2022-10-17T11:47:27.393Z,21.80
2022-10-17T11:52:56.429Z,21.90
2022-10-17T11:55:26.463Z,21.90
2022-10-17T11:58:04.909Z,21.90
2022-10-17T12:00:49.824Z,21.90
2022-10-17T12:03:41.660Z,21.80
2022-10-17T12:06:17.414Z,21.70
2022-10-17T12:08:50.796Z,21.60
2022-10-17T12:11:30.210Z,21.30
2022-10-17T12:13:58.944Z,21.10
2022-10-17T12:16:46.785Z,20.90
2022-10-17T12:19:30.677Z,20.40
2022-10-17T12:22:04.666Z,20.10
2022-10-17T12:24:45.462Z,19.90
2022-10-17T12:27:43.745Z,19.70
2022-10-17T12:30:21.680Z,19.60
2022-10-17T12:33:21.881Z,19.50
2022-10-17T12:36:12.792Z,19.40
2022-10-17T12:38:44.878Z,19.40
2022-10-17T12:41:15.165Z,19.40
2022-10-17T12:43:53.117Z,19.40
2022-10-17T12:46:57.715Z,19.40
2022-10-17T12:50:09.258Z,19.60
2022-10-17T12:53:04.395Z,19.60
2022-10-17T12:55:32.367Z,19.60
2022-10-17T12:58:41.009Z,19.60
2022-10-17T13:01:26.476Z,19.60
2022-10-17T13:03:55.159Z,19.50
2022-10-17T13:06:26.415Z,19.50
2022-10-17T13:09:34.478Z,19.50
2022-10-17T13:12:20.764Z,19.40
2022-10-17T13:14:53.962Z,19.40
2022-10-17T13:21:08.533Z,19.30
2022-10-17T13:26:47.012Z,19.00
2022-10-17T13:29:16.500Z,18.90
2022-10-17T13:31:45.934Z,18.80
2022-10-17T13:34:19.098Z,18.70
2022-10-17T13:36:50.263Z,18.70
2022-10-17T13:39:38.380Z,18.70
2022-10-17T13:42:23.845Z,18.70
2022-10-17T13:44:54.680Z,18.70
2022-10-17T13:47:31.333Z,18.70
2022-10-17T13:50:00.061Z,18.70
2022-10-17T13:52:34.120Z,18.70
2022-10-17T13:55:11.768Z,18.70
2022-10-17T13:57:45.598Z,18.80
2022-10-17T14:00:23.435Z,18.70
2022-10-17T14:02:51.340Z,18.70
2022-10-17T14:05:23.376Z,18.70
2022-10-17T14:08:13.721Z,18.70
2022-10-17T14:10:44.706Z,18.60
2022-10-17T14:13:23.302Z,18.60
2022-10-17T14:15:52.227Z,18.60
2022-10-17T14:18:25.571Z,18.70
2022-10-17T14:21:32.074Z,18.70
2022-10-17T14:23:44.909Z,18.70
2022-10-17T14:29:58.478Z,18.70
2022-10-17T14:32:26.668Z,18.70
2022-10-17T14:35:17.818Z,18.80
2022-10-17T14:37:52.946Z,18.80
2022-10-17T14:40:25.598Z,18.80
2022-10-17T14:43:02.101Z,18.80
2022-10-17T14:45:36.778Z,18.80
2022-10-17T14:48:13.308Z,18.90
2022-10-17T14:51:04.989Z,18.90
2022-10-17T14:53:33.062Z,18.90
2022-10-17T14:56:06.070Z,18.90
2022-10-17T14:58:35.019Z,18.90
2022-10-17T15:01:04.594Z,18.90
2022-10-17T15:03:32.960Z,18.90
2022-10-17T15:06:16.362Z,18.90
2022-10-17T15:08:47.481Z,18.90
2022-10-17T15:11:24.411Z,18.90
2022-10-17T15:13:59.823Z,18.90
2022-10-17T15:16:37.439Z,18.80
2022-10-17T15:19:11.553Z,18.80
2022-10-17T15:21:55.146Z,18.80
2022-10-17T15:24:33.596Z,18.70
2022-10-17T15:31:49.647Z,18.70
2022-10-17T15:34:28.994Z,18.60
2022-10-17T15:41:06.769Z,18.50
2022-10-17T15:43:34.500Z,18.50
2022-10-17T15:46:02.285Z,18.50
2022-10-17T15:48:32.694Z,18.50
2022-10-17T15:51:01.879Z,18.50
2022-10-17T15:53:29.609Z,18.60
2022-10-17T15:55:57.913Z,18.60
2022-10-17T15:58:28.205Z,18.60
2022-10-17T16:00:56.025Z,18.60
2022-10-17T16:03:23.922Z,18.60
2022-10-17T16:05:51.714Z,18.60
2022-10-17T16:08:20.918Z,18.50
2022-10-17T16:10:48.898Z,18.50
2022-10-17T16:13:18.970Z,18.50
2022-10-17T16:15:46.788Z,18.40
2022-10-17T16:18:14.653Z,18.40
2022-10-17T16:20:42.916Z,18.50
2022-10-17T16:23:13.529Z,18.50
2022-10-17T16:25:42.734Z,18.50
2022-10-17T16:28:11.854Z,18.50
2022-10-17T16:30:46.002Z,18.40
2022-10-17T16:33:14.339Z,18.40
2022-10-17T16:35:42.112Z,18.40
2022-10-17T16:38:09.841Z,18.40
2022-10-17T16:40:39.492Z,18.30
2022-10-17T16:43:08.694Z,18.30
2022-10-17T16:45:37.381Z,18.30
2022-10-17T16:48:05.953Z,18.40
2022-10-17T16:50:35.558Z,18.30
2022-10-17T16:53:03.964Z,18.30
2022-10-17T16:55:31.900Z,18.30
2022-10-17T16:57:59.966Z,18.30
2022-10-17T17:00:29.301Z,18.30
2022-10-17T17:02:57.234Z,18.20
2022-10-17T17:05:25.059Z,18.20
2022-10-17T17:07:53.066Z,18.30
2022-10-17T17:10:20.813Z,18.30
2022-10-17T17:12:48.529Z,18.30
2022-10-17T17:15:16.502Z,18.30
2022-10-17T17:17:54.710Z,18.30
2022-10-17T17:20:23.215Z,18.30
2022-10-17T17:22:52.193Z,18.30
2022-10-17T17:25:19.888Z,18.30
2022-10-17T17:27:47.608Z,18.20
2022-10-17T17:30:15.321Z,18.20
2022-10-17T17:32:43.037Z,18.20
2022-10-17T17:35:12.258Z,18.20
2022-10-17T17:37:40.019Z,18.20
2022-10-17T17:40:09.326Z,18.10
2022-10-17T17:42:37.071Z,18.10
2022-10-17T17:45:06.121Z,18.10
2022-10-17T17:47:33.986Z,18.10
2022-10-17T17:50:03.186Z,18.20
2022-10-17T17:52:32.322Z,18.20
2022-10-17T17:55:00.307Z,18.10
2022-10-17T17:57:30.275Z,18.10
2022-10-17T17:59:57.979Z,18.10
2022-10-17T18:02:25.710Z,18.10
2022-10-17T18:04:53.428Z,18.10
2022-10-17T18:07:21.123Z,18.10
2022-10-17T18:09:50.994Z,18.10
2022-10-17T18:12:18.778Z,18.10
2022-10-17T18:14:46.688Z,18.10
2022-10-17T18:17:14.428Z,18.20
2022-10-17T18:19:42.268Z,18.20
2022-10-17T18:22:10.685Z,18.20
2022-10-17T18:24:38.446Z,18.20
2022-10-17T18:27:07.799Z,18.20
2022-10-17T18:29:35.607Z,18.20
2022-10-17T18:32:03.511Z,18.20
2022-10-17T18:34:31.230Z,18.30
2022-10-17T18:36:59.887Z,18.30
2022-10-17T18:39:27.572Z,18.20
2022-10-17T18:41:55.370Z,18.20
2022-10-17T18:44:24.470Z,18.20
2022-10-17T18:46:52.653Z,18.10
2022-10-17T18:49:23.142Z,18.10
2022-10-17T18:51:51.552Z,18.20
2022-10-17T18:54:21.592Z,18.20
2022-10-17T18:56:51.019Z,18.20
2022-10-17T18:59:19.182Z,18.10
2022-10-17T19:01:48.715Z,18.20
2022-10-17T19:04:16.935Z,18.20
2022-10-17T19:06:45.146Z,18.10
2022-10-17T19:09:14.365Z,18.10
2022-10-17T19:11:42.965Z,18.10
2022-10-17T19:14:13.846Z,18.20
2022-10-17T19:16:43.996Z,18.20
2022-10-17T19:19:15.688Z,18.10
2022-10-17T19:21:44.229Z,18.00
2022-10-17T19:24:14.638Z,17.90
2022-10-17T19:26:43.249Z,17.90
2022-10-17T19:29:13.416Z,17.90
2022-10-17T19:31:41.424Z,17.80
2022-10-17T19:34:10.404Z,17.70
2022-10-17T19:36:39.851Z,17.60
2022-10-17T19:39:09.563Z,17.40
2022-10-17T19:41:37.414Z,17.40
2022-10-17T19:44:05.197Z,17.30
2022-10-17T19:46:34.412Z,17.20
2022-10-17T19:49:03.210Z,17.20
2022-10-17T19:51:31.679Z,17.10
2022-10-17T19:54:02.255Z,17.10
2022-10-17T19:56:31.794Z,17.00
2022-10-17T19:59:00.428Z,16.90
2022-10-17T20:01:30.111Z,16.90
2022-10-17T20:03:58.344Z,16.80
2022-10-17T20:06:26.379Z,16.70
2022-10-17T20:08:54.614Z,16.70
2022-10-17T20:11:26.048Z,16.60
2022-10-17T20:13:54.918Z,16.60
2022-10-17T20:16:24.717Z,16.60
2022-10-17T20:18:54.537Z,16.50
2022-10-17T20:21:24.330Z,16.50
2022-10-17T20:23:52.293Z,16.40
2022-10-17T20:26:39.092Z,16.30
2022-10-17T20:29:12.118Z,16.30
2022-10-17T20:31:40.544Z,16.20
2022-10-17T20:34:08.671Z,16.20
2022-10-17T20:36:37.442Z,16.20
2022-10-17T20:39:07.168Z,16.20
2022-10-17T20:41:35.049Z,16.20
2022-10-17T20:44:02.952Z,16.20
2022-10-17T20:46:44.719Z,16.10
2022-10-17T20:49:16.718Z,16.10
2022-10-17T20:51:44.982Z,16.10
2022-10-17T20:54:12.988Z,16.00
2022-10-17T20:56:40.896Z,16.10
2022-10-17T20:59:12.168Z,16.10
2022-10-17T21:01:41.560Z,16.10
2022-10-17T21:06:58.321Z,16.10
2022-10-17T21:09:26.244Z,16.20
2022-10-17T21:11:55.580Z,16.20
2022-10-17T21:14:24.440Z,16.20
2022-10-17T21:16:53.673Z,16.20
2022-10-17T21:19:22.560Z,16.10
2022-10-17T21:21:50.654Z,16.10
2022-10-17T21:24:20.436Z,16.10
2022-10-17T21:26:49.983Z,16.10
2022-10-17T21:29:17.701Z,16.10
2022-10-17T21:31:45.768Z,16.00
2022-10-17T21:34:17.453Z,16.00
2022-10-17T21:36:45.682Z,15.90
2022-10-17T21:39:15.080Z,15.90
2022-10-17T21:41:44.135Z,15.90
2022-10-17T21:44:14.560Z,15.80
2022-10-17T21:46:42.381Z,15.80
2022-10-17T21:49:11.990Z,15.70
2022-10-17T21:51:41.577Z,15.70
2022-10-17T21:54:09.650Z,15.70
2022-10-17T21:56:37.795Z,15.70
2022-10-17T21:59:06.477Z,15.70
2022-10-17T22:01:36.630Z,15.70
2022-10-17T22:04:06.728Z,15.70
2022-10-17T22:06:40.660Z,15.70
2022-10-17T22:09:13.772Z,15.70
2022-10-17T22:11:41.807Z,15.70
2022-10-17T22:14:13.336Z,15.70
2022-10-17T22:16:41.456Z,15.70
2022-10-17T22:19:11.330Z,15.70
2022-10-17T22:21:39.095Z,15.70
2022-10-17T22:24:09.165Z,15.70
2022-10-17T22:26:39.529Z,15.80
2022-10-17T22:29:08.457Z,15.70
2022-10-17T22:31:36.710Z,15.70
2022-10-17T22:34:05.601Z,15.80
2022-10-17T22:36:33.655Z,15.80
2022-10-17T22:39:01.509Z,15.80
2022-10-17T22:41:29.245Z,15.90
2022-10-17T22:43:58.594Z,16.00
2022-10-17T22:46:26.600Z,16.00
2022-10-17T22:48:54.977Z,16.10
2022-10-17T22:53:51.689Z,16.00
2022-10-17T22:56:21.740Z,16.00
2022-10-17T22:58:51.589Z,16.00
2022-10-17T23:01:22.571Z,15.90
2022-10-17T23:03:50.997Z,15.90
2022-10-17T23:06:19.414Z,15.90
2022-10-17T23:08:47.451Z,15.90
2022-10-17T23:11:15.181Z,15.90
2022-10-17T23:13:43.001Z,15.90
2022-10-17T23:16:10.753Z,16.00
2022-10-17T23:18:40.234Z,16.10
2022-10-17T23:21:08.777Z,16.10
2022-10-17T23:23:36.869Z,16.20
2022-10-17T23:26:06.537Z,16.20
2022-10-17T23:28:35.628Z,16.20
2022-10-17T23:31:11.526Z,16.10
2022-10-17T23:33:41.384Z,16.10
2022-10-17T23:36:10.647Z,16.00
2022-10-17T23:38:38.684Z,15.90
2022-10-17T23:41:06.760Z,15.90
2022-10-17T23:43:34.644Z,15.80
2022-10-17T23:46:02.700Z,15.80
2022-10-17T23:48:30.670Z,15.80
2022-10-17T23:50:59.804Z,15.70
2022-10-17T23:53:28.143Z,15.70
2022-10-17T23:55:55.815Z,15.70
2022-10-17T23:58:23.521Z,15.70
